createdAt,value
2022-10-09T00:01:24.021Z,94981.75
2022-10-09T00:03:52.724Z,94985.06
2022-10-09T00:06:23.001Z,94981.97
2022-10-09T00:08:50.431Z,94979.53
2022-10-09T00:11:26.197Z,94978.34
2022-10-09T00:13:54.713Z,94964.16
2022-10-09T00:16:22.938Z,94969.69
2022-10-09T00:18:51.057Z,94975.69
2022-10-09T00:21:21.345Z,94964.72
2022-10-09T00:23:49.240Z,94970.50
2022-10-09T00:26:16.795Z,94966.94
2022-10-09T00:28:43.881Z,94962.72
2022-10-09T00:31:11.928Z,94966.53
2022-10-09T00:33:39.703Z,94951.75
2022-10-09T00:36:09.370Z,94956.34
2022-10-09T00:38:36.632Z,94951.56
2022-10-09T00:41:03.705Z,94952.97
2022-10-09T00:43:43.492Z,94945.50
2022-10-09T00:46:27.602Z,94950.69
2022-10-09T00:49:12.715Z,94942.41
2022-10-09T00:51:41.323Z,94942.69
2022-10-09T00:54:11.791Z,94943.22
2022-10-09T00:56:39.074Z,94943.69
2022-10-09T00:59:07.027Z,94941.50
2022-10-09T01:01:34.219Z,94935.19
2022-10-09T01:04:01.177Z,94937.09
2022-10-09T01:07:22.068Z,94941.56
2022-10-09T01:10:05.885Z,94939.69
2022-10-09T01:13:28.607Z,94940.16
2022-10-09T01:16:10.103Z,94941.75
2022-10-09T01:19:01.333Z,94937.16
2022-10-09T01:21:52.505Z,94935.25
2022-10-09T01:24:33.640Z,94936.38
2022-10-09T01:27:28.357Z,94946.47
2022-10-09T01:30:04.062Z,94948.59
2022-10-09T01:32:38.829Z,94949.19
2022-10-09T01:35:08.116Z,94949.19
2022-10-09T01:37:37.115Z,94939.47
2022-10-09T01:40:07.685Z,94940.56
2022-10-09T01:42:34.790Z,94942.75
2022-10-09T01:45:01.985Z,94941.38
2022-10-09T01:47:29.011Z,94946.47
2022-10-09T01:50:09.451Z,94944.06
2022-10-09T01:52:52.055Z,94944.97
2022-10-09T01:55:39.239Z,94948.56
2022-10-09T01:58:22.662Z,94956.47
2022-10-09T02:01:17.639Z,94954.56
2022-10-09T02:03:49.049Z,94948.88
2022-10-09T02:06:17.198Z,94950.56
2022-10-09T02:08:47.134Z,94956.53
2022-10-09T02:11:17.538Z,94955.44
2022-10-09T02:13:47.843Z,94956.84
2022-10-09T02:16:43.658Z,94954.94
2022-10-09T02:19:39.891Z,94973.31
2022-10-09T02:22:19.250Z,94969.34
2022-10-09T02:24:46.964Z,94975.31
2022-10-09T02:27:14.970Z,94976.41
2022-10-09T02:29:43.754Z,94975.63
2022-10-09T02:32:11.677Z,94979.41
2022-10-09T02:34:38.982Z,94980.53
2022-10-09T02:37:06.390Z,94974.34
2022-10-09T02:39:33.291Z,94973.53
2022-10-09T02:42:00.724Z,94976.53
2022-10-09T02:44:27.806Z,94978.19
2022-10-09T02:46:54.842Z,94975.31
2022-10-09T02:49:22.245Z,94972.13
2022-10-09T02:51:49.160Z,94973.22
2022-10-09T02:54:16.069Z,94974.91
2022-10-09T02:56:42.970Z,94970.13
2022-10-09T02:59:10.394Z,94978.19
2022-10-09T03:01:37.503Z,94975.81
2022-10-09T03:04:04.950Z,94973.72
2022-10-09T03:06:32.043Z,94974.28
2022-10-09T03:08:59.060Z,94974.06
2022-10-09T03:11:26.881Z,94984.06
2022-10-09T03:13:54.783Z,94987.03
2022-10-09T03:16:24.041Z,94979.47
2022-10-09T03:18:52.244Z,94984.06
2022-10-09T03:21:21.544Z,94988.84
2022-10-09T03:23:49.734Z,94992.84
2022-10-09T03:26:19.358Z,94988.47
2022-10-09T03:28:48.733Z,94993.28
2022-10-09T03:31:39.338Z,94993.47
2022-10-09T03:34:04.936Z,95000.16
2022-10-09T03:36:31.885Z,94995.25
2022-10-09T03:38:58.787Z,95004.44
2022-10-09T03:41:25.795Z,94998.84
2022-10-09T03:43:52.672Z,95000.75
2022-10-09T03:46:19.653Z,95003.16
2022-10-09T03:48:46.696Z,94994.06
2022-10-09T03:51:13.675Z,94990.66
2022-10-09T03:53:40.590Z,94991.25
2022-10-09T03:56:07.746Z,94999.91
2022-10-09T03:58:34.743Z,94994.81
2022-10-09T04:01:01.761Z,94991.63
2022-10-09T04:03:29.169Z,94998.41
2022-10-09T04:05:56.036Z,94992.81
2022-10-09T04:08:23.025Z,95001.81
2022-10-09T04:10:56.939Z,95005.06
2022-10-09T04:13:23.941Z,95009.44
2022-10-09T04:15:54.545Z,95005.16
2022-10-09T04:18:22.119Z,95005.16
2022-10-09T04:20:51.314Z,95005.75
2022-10-09T04:23:19.382Z,95007.34
2022-10-09T04:25:46.677Z,95003.25
2022-10-09T04:28:14.012Z,95004.06
2022-10-09T04:30:41.459Z,95011.03
2022-10-09T04:33:12.686Z,95013.13
2022-10-09T04:35:44.405Z,95014.47
2022-10-09T04:38:11.403Z,95015.31
2022-10-09T04:40:38.449Z,95011.94
2022-10-09T04:43:05.498Z,95019.00
2022-10-09T04:45:32.762Z,95024.69
2022-10-09T04:48:00.149Z,95020.69
2022-10-09T04:50:27.199Z,95022.06
2022-10-09T04:53:00.359Z,95022.06
2022-10-09T04:55:27.255Z,95025.56
2022-10-09T04:57:54.193Z,95018.78
2022-10-09T05:00:21.165Z,95027.06
2022-10-09T05:02:48.563Z,95032.66
2022-10-09T05:05:15.773Z,95028.88
2022-10-09T05:07:42.708Z,95033.16
2022-10-09T05:10:09.829Z,95037.75
2022-10-09T05:12:36.745Z,95034.25
2022-10-09T05:15:05.035Z,95035.56
2022-10-09T05:17:32.074Z,95035.28
2022-10-09T05:19:59.015Z,95036.28
2022-10-09T05:22:25.910Z,95047.28
2022-10-09T05:24:54.030Z,95045.91
2022-10-09T05:27:20.979Z,95040.72
2022-10-09T05:29:47.969Z,95048.41
2022-10-09T05:32:15.113Z,95048.25
2022-10-09T05:34:42.858Z,95054.25
2022-10-09T05:37:09.902Z,95050.38
2022-10-09T05:39:38.480Z,95055.97
2022-10-09T05:42:05.846Z,95055.38
2022-10-09T05:44:32.926Z,95061.28
2022-10-09T05:46:59.863Z,95053.59
2022-10-09T05:49:26.874Z,95060.81
2022-10-09T05:51:54.318Z,95065.91
2022-10-09T05:54:21.269Z,95060.59
2022-10-09T05:56:48.333Z,95068.25
2022-10-09T05:59:19.901Z,95075.03
2022-10-09T06:01:51.881Z,95078.66
2022-10-09T06:04:21.454Z,95083.31
2022-10-09T06:06:49.161Z,95088.13
2022-10-09T06:09:18.117Z,95086.44
2022-10-09T06:11:45.340Z,95090.63
2022-10-09T06:14:13.582Z,95090.63
2022-10-09T06:16:44.990Z,95100.72
2022-10-09T06:19:14.834Z,95098.59
2022-10-09T06:21:42.633Z,95098.84
2022-10-09T06:24:17.648Z,95100.44
2022-10-09T06:26:44.648Z,95108.22
2022-10-09T06:29:11.806Z,95107.72
2022-10-09T06:31:38.992Z,95106.00
2022-10-09T06:34:06.016Z,95114.22
2022-10-09T06:36:35.217Z,95118.31
2022-10-09T06:39:06.520Z,95117.50
2022-10-09T06:41:33.939Z,95123.31
2022-10-09T06:44:16.316Z,95116.00
2022-10-09T06:46:45.084Z,95122.41
2022-10-09T06:49:12.870Z,95126.09
2022-10-09T06:51:39.999Z,95123.91
2022-10-09T06:54:13.459Z,95123.09
2022-10-09T06:56:40.899Z,95124.47
2022-10-09T06:59:08.750Z,95120.84
2022-10-09T07:01:35.746Z,95109.41
2022-10-09T07:04:07.273Z,95112.56
2022-10-09T07:06:38.029Z,95119.22
2022-10-09T07:09:07.711Z,95108.28
2022-10-09T07:11:36.938Z,95115.38
2022-10-09T07:14:06.460Z,95128.59
2022-10-09T07:16:38.822Z,95123.53
2022-10-09T07:19:17.771Z,95121.50
2022-10-09T07:21:47.198Z,95123.47
2022-10-09T07:24:14.733Z,95129.84
2022-10-09T07:26:44.538Z,95131.97
2022-10-09T07:29:15.729Z,95128.88
2022-10-09T07:31:42.652Z,95129.75
2022-10-09T07:34:09.584Z,95127.53
2022-10-09T07:36:36.781Z,95127.53
2022-10-09T07:39:04.994Z,95129.69
2022-10-09T07:41:32.199Z,95131.47
2022-10-09T07:43:59.223Z,95142.06
2022-10-09T07:46:33.049Z,95139.09
2022-10-09T07:49:00.898Z,95128.72
2022-10-09T07:51:29.519Z,95128.91
2022-10-09T07:53:57.698Z,95134.84
2022-10-09T07:56:29.620Z,95134.69
2022-10-09T07:58:59.043Z,95129.41
2022-10-09T08:01:29.881Z,95133.09
2022-10-09T08:03:59.953Z,95130.72
2022-10-09T08:06:27.843Z,95135.47
2022-10-09T08:08:57.543Z,95121.53
2022-10-09T08:11:25.777Z,95132.16
2022-10-09T08:13:54.209Z,95129.84
2022-10-09T08:16:22.645Z,95123.44
2022-10-09T08:18:49.719Z,95116.38
2022-10-09T08:21:18.954Z,95113.06
2022-10-09T08:23:46.712Z,95112.41
2022-10-09T08:26:16.268Z,95105.97
2022-10-09T08:28:43.600Z,95108.69
2022-10-09T08:31:15.691Z,95112.66
2022-10-09T08:33:43.272Z,95112.47
2022-10-09T08:36:12.419Z,95115.00
2022-10-09T08:38:48.171Z,95115.06
2022-10-09T08:41:52.893Z,95122.50
2022-10-09T08:44:33.609Z,95114.22
2022-10-09T08:47:26.348Z,95114.97
2022-10-09T08:50:23.310Z,95104.69
2022-10-09T08:52:59.035Z,95093.56
2022-10-09T08:55:32.989Z,95096.66
2022-10-09T08:58:05.881Z,95100.28
2022-10-09T09:00:43.187Z,95094.00
2022-10-09T09:03:43.035Z,95094.47
2022-10-09T09:06:40.794Z,95090.06
2022-10-09T09:09:51.445Z,95083.38
2022-10-09T09:12:42.206Z,95090.75
2022-10-09T09:15:59.974Z,95089.59
2022-10-09T09:47:34.838Z,95091.91
2022-10-09T09:50:06.228Z,95094.94
2022-10-09T09:52:43.416Z,95093.94
2022-10-09T09:55:29.161Z,95092.97
2022-10-09T09:58:07.737Z,95093.22
2022-10-09T10:00:35.883Z,95088.44
2022-10-09T10:03:11.122Z,95090.81
2022-10-09T10:05:39.235Z,95088.13
2022-10-09T10:08:35.471Z,95095.28
2022-10-09T10:11:06.713Z,95087.56
2022-10-09T10:13:47.659Z,95089.19
2022-10-09T10:16:21.681Z,95091.38
2022-10-09T10:18:48.937Z,95092.06
2022-10-09T10:21:19.048Z,95089.97
2022-10-09T10:24:10.674Z,95089.56
2022-10-09T10:26:51.415Z,95098.44
2022-10-09T10:29:23.784Z,95079.72
2022-10-09T10:32:29.476Z,95078.28
2022-10-09T10:35:17.501Z,95074.25
2022-10-09T10:38:14.142Z,95075.06
2022-10-09T10:40:56.886Z,95062.19
2022-10-09T10:44:02.194Z,95065.88
2022-10-09T10:46:39.947Z,95059.13
2022-10-09T10:49:11.689Z,95064.44
2022-10-09T10:52:09.767Z,95052.50
2022-10-09T10:54:41.075Z,95055.63
2022-10-09T10:57:16.934Z,95067.34
2022-10-09T11:00:11.184Z,95053.41
2022-10-09T11:03:17.084Z,95046.06
2022-10-09T11:05:53.973Z,95039.63
2022-10-09T11:09:07.125Z,95044.81
2022-10-09T11:11:48.016Z,95043.47
2022-10-09T11:14:39.776Z,95037.19
2022-10-09T11:21:00.486Z,95038.28
2022-10-09T11:23:42.924Z,95025.97
2022-10-09T11:26:42.257Z,95024.09
2022-10-09T11:42:32.516Z,95014.03
2022-10-09T11:48:16.877Z,95005.97
2022-10-09T11:51:01.586Z,94995.41
2022-10-09T11:53:31.847Z,95002.94
2022-10-09T11:56:28.736Z,94991.47
2022-10-09T11:59:06.477Z,94989.53
2022-10-09T12:01:44.842Z,94992.31
2022-10-09T12:04:54.011Z,94989.59
2022-10-09T12:07:47.271Z,94983.28
2022-10-09T12:10:34.142Z,94989.19
2022-10-09T12:13:05.077Z,94991.56
2022-10-09T12:15:54.947Z,94986.41
2022-10-09T12:18:27.811Z,94986.78
2022-10-09T12:20:56.628Z,94978.41
2022-10-09T12:23:27.936Z,94979.84
2022-10-09T12:25:56.980Z,94990.72
2022-10-09T12:28:39.383Z,94982.22
2022-10-09T12:31:18.797Z,94979.66
2022-10-09T12:33:51.869Z,94979.25
2022-10-09T12:36:29.769Z,94975.91
2022-10-09T12:38:57.195Z,94971.00
2022-10-09T12:41:30.386Z,94969.25
2022-10-09T12:43:58.893Z,94971.47
2022-10-09T12:46:32.008Z,94975.28
2022-10-09T12:49:00.826Z,94969.56
2022-10-09T12:51:30.205Z,94967.31
2022-10-09T12:53:57.208Z,94972.22
2022-10-09T12:56:29.901Z,94970.28
2022-10-09T12:58:58.899Z,94982.59
2022-10-09T13:01:26.621Z,94975.53
2022-10-09T13:04:05.333Z,94975.66
2022-10-09T13:06:50.594Z,94965.75
2022-10-09T13:09:37.372Z,94968.78
2022-10-09T13:12:22.924Z,94967.25
2022-10-09T13:14:55.577Z,94968.53
2022-10-09T13:17:33.753Z,94966.31
2022-10-09T13:20:04.500Z,94962.03
2022-10-09T13:22:35.187Z,94968.50
2022-10-09T13:25:04.454Z,94968.09
2022-10-09T13:27:35.159Z,94965.50
2022-10-09T13:30:02.428Z,94965.47
2022-10-09T13:32:29.471Z,94966.53
2022-10-09T13:34:58.194Z,94960.59
2022-10-09T13:37:26.806Z,94960.78
2022-10-09T13:39:56.034Z,94968.75
2022-10-09T13:42:26.552Z,94967.13
2022-10-09T13:44:54.164Z,94975.91
2022-10-09T13:47:24.665Z,94976.72
2022-10-09T13:49:51.950Z,94971.53
2022-10-09T13:52:18.947Z,94967.63
2022-10-09T13:54:45.810Z,94967.63
2022-10-09T13:57:12.911Z,94969.31
2022-10-09T13:59:40.032Z,94975.69
2022-10-09T14:02:07.436Z,94972.50
2022-10-09T14:04:34.432Z,94965.22
2022-10-09T14:07:01.362Z,94976.09
2022-10-09T14:09:28.438Z,94975.53
2022-10-09T14:11:55.429Z,94972.41
2022-10-09T14:14:22.692Z,94968.63
2022-10-09T14:16:50.920Z,94962.06
2022-10-09T14:19:18.329Z,94974.63
2022-10-09T14:21:47.004Z,94967.78
2022-10-09T14:24:14.774Z,94965.38
2022-10-09T14:26:41.736Z,94982.91
2022-10-09T14:29:10.116Z,94976.25
2022-10-09T14:31:37.296Z,94981.34
2022-10-09T14:34:04.537Z,94985.16
2022-10-09T14:36:31.960Z,94979.88
2022-10-09T14:39:01.745Z,94985.97
2022-10-09T14:41:32.140Z,94989.25
2022-10-09T14:44:01.219Z,94988.16
2022-10-09T14:46:29.740Z,94987.53
2022-10-09T14:48:57.958Z,94991.78
2022-10-09T14:51:26.975Z,94985.41
2022-10-09T14:54:00.767Z,94982.88
2022-10-09T14:56:28.281Z,94993.50
2022-10-09T14:58:57.967Z,94986.34
2022-10-09T15:01:24.908Z,94986.81
2022-10-09T15:03:51.995Z,94989.97
2022-10-09T15:06:24.025Z,94996.66
2022-10-09T15:08:56.001Z,94983.91
2022-10-09T15:11:23.500Z,94992.97
2022-10-09T15:13:50.412Z,95000.31
2022-10-09T15:16:19.155Z,94982.25
2022-10-09T15:18:48.286Z,94994.31
2022-10-09T15:21:23.750Z,94990.25
2022-10-09T15:23:53.657Z,94994.56
2022-10-09T15:26:20.531Z,95004.78
2022-10-09T15:28:47.589Z,95005.97
2022-10-09T15:31:35.384Z,95010.97
2022-10-09T15:34:02.837Z,95011.81
2022-10-09T15:36:33.484Z,95005.38
2022-10-09T15:39:05.860Z,95019.19
2022-10-09T15:41:35.475Z,95019.56
2022-10-09T15:44:05.923Z,95024.94
2022-10-09T15:46:32.968Z,95032.19
2022-10-09T15:49:00.018Z,95028.13
2022-10-09T15:51:27.105Z,95027.78
2022-10-09T15:53:54.061Z,95029.50
2022-10-09T15:56:23.800Z,95030.78
2022-10-09T15:58:52.122Z,95042.19
2022-10-09T16:01:19.894Z,95044.72
2022-10-09T16:03:47.393Z,95054.69
2022-10-09T16:06:17.704Z,95045.13
2022-10-09T16:08:46.298Z,95047.56
2022-10-09T16:11:17.929Z,95055.03
2022-10-09T16:13:48.301Z,95055.91
2022-10-09T16:16:21.739Z,95061.59
2022-10-09T16:18:49.252Z,95064.25
2022-10-09T16:21:28.135Z,95072.41
2022-10-09T16:23:58.745Z,95077.34
2022-10-09T16:26:26.488Z,95076.50
2022-10-09T16:28:53.463Z,95077.38
2022-10-09T16:31:28.767Z,95079.22
2022-10-09T16:33:56.013Z,95073.19
2022-10-09T16:36:23.576Z,95091.16
2022-10-09T16:38:50.563Z,95084.25
2022-10-09T16:41:20.061Z,95087.28
2022-10-09T16:43:49.305Z,95084.69
2022-10-09T16:46:25.364Z,95087.16
2022-10-09T16:48:53.668Z,95092.34
2022-10-09T16:51:32.234Z,95098.72
2022-10-09T16:54:01.863Z,95110.63
2022-10-09T16:56:34.600Z,95105.38
2022-10-09T16:59:04.825Z,95112.19
2022-10-09T17:01:32.625Z,95111.91
2022-10-09T17:04:00.188Z,95111.13
2022-10-09T17:06:27.906Z,95112.13
2022-10-09T17:08:57.892Z,95124.59
2022-10-09T17:11:26.799Z,95129.53
2022-10-09T17:13:56.924Z,95116.78
2022-10-09T17:16:26.525Z,95119.22
2022-10-09T17:18:54.549Z,95125.88
2022-10-09T17:21:21.609Z,95126.84
2022-10-09T17:23:52.607Z,95126.56
2022-10-09T17:26:19.536Z,95139.41
2022-10-09T17:28:47.416Z,95142.47
2022-10-09T17:31:17.544Z,95152.00
2022-10-09T17:33:46.369Z,95144.63
2022-10-09T17:36:19.133Z,95143.94
2022-10-09T17:38:47.044Z,95140.94
2022-10-09T17:41:15.317Z,95147.31
2022-10-09T17:43:42.608Z,95150.84
2022-10-09T17:46:09.757Z,95149.69
2022-10-09T17:48:38.552Z,95146.91
2022-10-09T17:51:05.814Z,95161.63
2022-10-09T17:53:32.762Z,95149.41
2022-10-09T17:56:03.451Z,95161.38
2022-10-09T17:58:30.695Z,95151.94
2022-10-09T18:00:57.807Z,95155.63
2022-10-09T18:03:24.803Z,95160.34
2022-10-09T18:05:51.800Z,95164.06
2022-10-09T18:08:19.853Z,95158.38
2022-10-09T18:10:47.045Z,95162.22
2022-10-09T18:13:14.395Z,95162.34
2022-10-09T18:15:43.171Z,95162.16
2022-10-09T18:18:11.431Z,95161.19
2022-10-09T18:20:39.668Z,95156.22
2022-10-09T18:23:08.014Z,95160.53
2022-10-09T18:25:36.082Z,95160.06
2022-10-09T18:28:03.112Z,95156.38
2022-10-09T18:30:30.057Z,95164.88
2022-10-09T18:32:57.082Z,95171.09
2022-10-09T18:35:25.616Z,95161.34
2022-10-09T18:37:52.772Z,95163.94
2022-10-09T18:40:19.826Z,95172.41
2022-10-09T18:42:46.845Z,95169.91
2022-10-09T18:45:14.787Z,95175.66
2022-10-09T18:47:42.093Z,95185.41
2022-10-09T18:50:12.465Z,95175.31
2022-10-09T18:52:41.725Z,95183.47
2022-10-09T18:55:12.469Z,95183.94
2022-10-09T18:57:41.167Z,95185.41
2022-10-09T19:00:09.642Z,95198.34
2022-10-09T19:05:11.729Z,95191.66
2022-10-09T19:07:38.644Z,95199.34
2022-10-09T19:10:07.048Z,95201.59
2022-10-09T19:12:34.168Z,95210.41
2022-10-09T19:15:01.117Z,95212.94
2022-10-09T19:17:28.169Z,95208.31
2022-10-09T19:19:55.158Z,95195.84
2022-10-09T19:22:24.039Z,95210.56
2022-10-09T19:24:51.196Z,95212.78
2022-10-09T19:27:18.204Z,95216.16
2022-10-09T19:29:45.202Z,95226.28
2022-10-09T19:32:12.092Z,95215.91
2022-10-09T19:34:39.030Z,95226.16
2022-10-09T19:39:37.883Z,95226.16
2022-10-09T19:42:04.984Z,95221.19
2022-10-09T19:44:31.913Z,95227.41
2022-10-09T19:46:58.827Z,95225.81
2022-10-09T19:49:25.789Z,95222.94
2022-10-09T19:51:52.757Z,95220.38
2022-10-09T19:54:19.638Z,95226.31
2022-10-09T19:56:46.515Z,95222.31
2022-10-09T19:59:13.450Z,95223.75
2022-10-09T20:01:40.626Z,95227.41
2022-10-09T20:04:09.932Z,95230.44
2022-10-09T20:06:38.732Z,95233.50
2022-10-09T20:09:07.170Z,95239.56
2022-10-09T20:11:35.091Z,95246.28
2022-10-09T20:14:02.969Z,95246.13
2022-10-09T20:16:32.281Z,95255.69
2022-10-09T20:19:03.187Z,95262.00
2022-10-09T20:21:32.742Z,95256.28
2022-10-09T20:24:01.250Z,95254.84
2022-10-09T20:26:29.937Z,95251.13
2022-10-09T20:28:57.294Z,95256.09
2022-10-09T20:31:26.078Z,95258.47
2022-10-09T20:33:54.672Z,95255.59
2022-10-09T20:36:35.348Z,95248.25
2022-10-09T20:39:05.796Z,95253.31
2022-10-09T20:41:33.799Z,95260.94
2022-10-09T20:44:02.206Z,95259.81
2022-10-09T20:46:31.316Z,95260.44
2022-10-09T20:48:59.704Z,95265.06
2022-10-09T20:51:26.989Z,95258.03
2022-10-09T20:53:57.183Z,95265.22
2022-10-09T20:56:26.501Z,95261.56
2022-10-09T20:58:54.953Z,95259.84
2022-10-09T21:01:22.568Z,95272.28
2022-10-09T21:03:49.912Z,95264.75
2022-10-09T21:06:19.209Z,95261.50
2022-10-09T21:08:46.648Z,95254.63
2022-10-09T21:11:19.131Z,95252.06
2022-10-09T21:13:46.970Z,95247.75
2022-10-09T21:16:21.377Z,95247.75
2022-10-09T21:18:52.772Z,95249.34
2022-10-09T21:21:19.812Z,95246.66
2022-10-09T21:23:50.879Z,95248.63
2022-10-09T21:26:18.462Z,95248.63
2022-10-09T21:28:45.815Z,95251.03
2022-10-09T21:31:16.772Z,95258.03
2022-10-09T21:33:43.779Z,95255.47
2022-10-09T21:36:21.197Z,95252.09
2022-10-09T21:38:48.309Z,95257.16
2022-10-09T21:41:15.235Z,95245.69
2022-10-09T21:43:42.091Z,95256.03
2022-10-09T21:46:09.030Z,95254.44
2022-10-09T21:48:35.957Z,95249.00
2022-10-09T21:51:03.023Z,95243.47
2022-10-09T21:53:29.918Z,95248.72
2022-10-09T21:55:56.946Z,95254.94
2022-10-09T21:58:23.863Z,95250.63
2022-10-09T22:00:58.578Z,95250.28
2022-10-09T22:03:27.722Z,95255.34
2022-10-09T22:05:54.694Z,95243.84
2022-10-09T22:08:22.067Z,95252.91
2022-10-09T22:10:49.742Z,95247.34
2022-10-09T22:13:18.279Z,95247.91
2022-10-09T22:15:50.752Z,95251.84
2022-10-09T22:18:18.658Z,95252.47
2022-10-09T22:20:48.269Z,95255.31
2022-10-09T22:23:16.145Z,95261.84
2022-10-09T22:25:43.134Z,95261.06
2022-10-09T22:28:10.323Z,95258.81
2022-10-09T22:30:37.232Z,95253.72
2022-10-09T22:33:04.458Z,95258.97
2022-10-09T22:35:31.424Z,95269.72
2022-10-09T22:37:58.362Z,95281.28
2022-10-09T22:40:25.422Z,95275.97
2022-10-09T22:42:52.895Z,95282.00
2022-10-09T22:45:19.970Z,95287.25
2022-10-09T22:47:48.012Z,95286.44
2022-10-09T22:50:15.009Z,95294.22
2022-10-09T22:52:42.069Z,95294.22
2022-10-09T22:55:09.424Z,95300.84
2022-10-09T22:57:36.406Z,95297.03
2022-10-09T23:00:05.401Z,95297.22
2022-10-09T23:02:32.373Z,95298.03
2022-10-09T23:04:59.412Z,95295.19
2022-10-09T23:07:26.378Z,95296.88
2022-10-09T23:09:53.283Z,95300.97
2022-10-09T23:12:20.191Z,95305.88
2022-10-09T23:14:47.290Z,95314.75
2022-10-09T23:17:14.347Z,95296.78
2022-10-09T23:19:41.238Z,95312.19
2022-10-09T23:22:08.159Z,95304.91
2022-10-09T23:24:35.073Z,95314.25
2022-10-09T23:27:02.043Z,95315.94
2022-10-09T23:29:29.075Z,95309.66
2022-10-09T23:31:56.017Z,95308.19
2022-10-09T23:34:22.957Z,95306.19
2022-10-09T23:36:49.904Z,95309.31
2022-10-09T23:39:17.404Z,95299.41
2022-10-09T23:41:44.481Z,95301.00
2022-10-09T23:44:11.569Z,95303.59
2022-10-09T23:46:38.505Z,95306.19
2022-10-09T23:49:05.646Z,95307.78
2022-10-09T23:51:32.605Z,95319.88
2022-10-09T23:53:59.956Z,95317.91
2022-10-09T23:56:35.940Z,95323.34
2022-10-09T23:59:06.201Z,95326.03
